Time;durP1;ratioP1;P1;durP2;ratioP2;P2;SDS_P1;SDS_P2;PMS_P1;PMS_P2;Temp;Humidity;BMP_temperature;BMP_pressure;BME280_temperature;BME280_humidity;BME280_pressure;Samples;Min_cycle;Max_cycle;Signal;HPM_P1;HPM_P2
2022/04/30 00:00:43;;;;;;;10.43;6.88;;;;;;;;;;4993589;28;20054;-91
2022/04/30 00:03:11;;;;;;;10.43;6.60;;;;;;;;;;4993037;28;20521;-92
2022/04/30 00:05:38;;;;;;;10.85;6.97;;;;;;;;;;4994138;28;20033;-92
2022/04/30 00:08:04;;;;;;;11.40;7.00;;;;;;;;;;4994021;28;20046;-93
2022/04/30 00:10:37;;;;;;;10.23;6.53;;;;;;;;;;4992606;28;20037;-92
2022/04/30 00:13:04;;;;;;;12.27;7.05;;;;;;;;;;4992646;28;20026;-93
2022/04/30 00:15:30;;;;;;;14.18;6.97;;;;;;;;;;4994192;28;20034;-94
2022/04/30 00:17:56;;;;;;;14.50;7.53;;;;;;;;;;4992807;28;20559;-92
2022/04/30 00:20:25;;;;;;;13.52;6.45;;;;;;;;;;4992740;28;20042;-94
2022/04/30 00:22:52;;;;;;;18.13;7.88;;;;;;;;;;4993229;28;20027;-91
2022/04/30 00:25:18;;;;;;;15.15;7.55;;;;;;;;;;4993506;28;20060;-91
2022/04/30 00:27:52;;;;;;;13.70;7.35;;;;;;;;;;4993179;28;20035;-93
2022/04/30 00:30:18;;;;;;;10.73;7.07;;;;;;;;;;4992710;28;20521;-89
2022/04/30 00:32:45;;;;;;;14.57;7.05;;;;;;;;;;4994431;28;20027;-92
2022/04/30 00:35:11;;;;;;;11.52;7.18;;;;;;;;;;4993770;28;20065;-93
2022/04/30 00:37:37;;;;;;;15.07;7.30;;;;;;;;;;4992955;28;20030;-90
2022/04/30 00:40:03;;;;;;;12.98;7.47;;;;;;;;;;4992177;28;20036;-91
2022/04/30 00:42:29;;;;;;;13.15;6.90;;;;;;;;;;4992378;28;20034;-91
2022/04/30 00:44:55;;;;;;;18.33;8.15;;;;;;;;;;4992630;28;20442;-92
2022/04/30 00:47:21;;;;;;;17.35;7.90;;;;;;;;;;4993161;28;20092;-93
2022/04/30 00:49:57;;;;;;;17.40;7.35;;;;;;;;;;4993023;28;20523;-92
2022/04/30 00:52:29;;;;;;;12.70;6.72;;;;;;;;;;4992198;28;20030;-91
2022/04/30 00:55:05;;;;;;;14.30;7.80;;;;;;;;;;4992449;28;20026;-92
2022/04/30 00:57:32;;;;;;;13.30;7.50;;;;;;;;;;4992102;28;20037;-91
2022/04/30 01:00:00;;;;;;;13.68;8.30;;;;;;;;;;4992613;28;20027;-92
2022/04/30 01:02:30;;;;;;;13.60;7.90;;;;;;;;;;4992293;28;20033;-92
2022/04/30 01:05:04;;;;;;;16.25;7.78;;;;;;;;;;4992114;28;20023;-91
2022/04/30 01:07:33;;;;;;;16.65;7.65;;;;;;;;;;4988879;28;20126;-91
2022/04/30 01:10:01;;;;;;;13.75;7.85;;;;;;;;;;5006061;28;20030;-91
2022/04/30 01:12:27;;;;;;;;;;;;;;;;;;4992251;28;20030;-91
2022/04/30 01:14:55;;;;;;;14.63;8.38;;;;;;;;;;4992810;28;19913;-93
2022/04/30 01:17:21;;;;;;;13.80;7.82;;;;;;;;;;4992456;28;20165;-90
2022/04/30 01:19:56;;;;;;;14.63;7.90;;;;;;;;;;4992528;28;20125;-91
2022/04/30 01:22:27;;;;;;;18.65;8.95;;;;;;;;;;4992082;28;20026;-91
2022/04/30 01:25:01;;;;;;;15.35;8.38;;;;;;;;;;4991675;28;20482;-92
2022/04/30 01:27:27;;;;;;;16.45;9.00;;;;;;;;;;4991465;28;20593;-94
2022/04/30 01:29:54;;;;;;;21.08;9.02;;;;;;;;;;4991447;28;20486;-92
2022/04/30 01:38:02;;;;;;;16.15;8.68;;;;;;;;;;4992373;28;20039;-94
2022/04/30 01:40:29;;;;;;;18.63;8.68;;;;;;;;;;4990975;28;20057;-93
2022/04/30 01:45:45;;;;;;;18.08;8.68;;;;;;;;;;4995013;28;20026;-92
2022/04/30 01:48:14;;;;;;;14.25;8.93;;;;;;;;;;4991777;28;20031;-91
2022/04/30 01:50:44;;;;;;;20.00;9.07;;;;;;;;;;4992574;28;20022;-93
2022/04/30 01:53:10;;;;;;;17.52;9.00;;;;;;;;;;5002903;28;20027;-90
2022/04/30 01:55:39;;;;;;;21.30;9.43;;;;;;;;;;5015003;28;20007;-92
2022/04/30 01:58:05;;;;;;;19.67;9.85;;;;;;;;;;5016399;28;20086;-89
2022/04/30 02:00:32;;;;;;;16.63;9.10;;;;;;;;;;5008877;28;20090;-89
2022/04/30 02:03:04;;;;;;;16.65;10.10;;;;;;;;;;4996853;28;20037;-91
2022/04/30 02:05:32;;;;;;;19.02;9.32;;;;;;;;;;4990937;28;20030;-93
2022/04/30 02:08:04;;;;;;;24.52;10.23;;;;;;;;;;4992272;28;20085;-91
2022/04/30 02:10:30;;;;;;;15.10;9.57;;;;;;;;;;4990576;28;20098;-90
2022/04/30 02:12:57;;;;;;;15.32;9.35;;;;;;;;;;4990787;28;20030;-92
2022/04/30 02:15:23;;;;;;;16.13;10.00;;;;;;;;;;4992526;28;20133;-94
2022/04/30 02:18:02;;;;;;;16.85;9.80;;;;;;;;;;5006127;28;20061;-90
2022/04/30 02:20:41;;;;;;;16.15;9.68;;;;;;;;;;5009737;28;20061;-93
2022/04/30 02:23:15;;;;;;;17.58;9.18;;;;;;;;;;4992434;28;20153;-92
2022/04/30 02:25:42;;;;;;;22.17;10.50;;;;;;;;;;4992795;28;20112;-93
2022/04/30 02:28:32;;;;;;;16.73;9.15;;;;;;;;;;5001618;28;20303;-94
2022/04/30 02:31:08;;;;;;;14.05;8.68;;;;;;;;;;5016094;28;20018;-89
2022/04/30 02:33:55;;;;;;;19.08;10.07;;;;;;;;;;5017048;28;20066;-88
2022/04/30 02:39:22;;;;;;;23.88;9.30;;;;;;;;;;5018134;28;20061;-93
2022/04/30 02:42:13;;;;;;;23.38;8.88;;;;;;;;;;4994713;28;20027;-91
2022/04/30 02:45:01;;;;;;;17.85;9.23;;;;;;;;;;4989003;28;20050;-92
2022/04/30 02:51:03;;;;;;;17.25;9.23;;;;;;;;;;4996880;28;20037;-89
2022/04/30 02:53:31;;;;;;;21.77;9.00;;;;;;;;;;4973813;28;20472;-89
2022/04/30 02:56:30;;;;;;;;;;;;;;;;;;4976976;28;20094;-89
2022/04/30 03:01:57;;;;;;;19.25;9.90;;;;;;;;;;4969913;28;20038;-88
2022/04/30 03:05:10;;;;;;;21.15;10.43;;;;;;;;;;4957866;28;20047;-90
2022/04/30 03:07:48;;;;;;;17.67;9.10;;;;;;;;;;5022033;23;20056;-89
2022/04/30 03:10:45;;;;;;;;;;;;;;;;;;;;;
2022/04/30 03:22:11;;;;;;;15.75;9.23;;;;;;;;;;5066548;28;20068;-93
2022/04/30 03:24:46;;;;;;;19.65;9.43;;;;;;;;;;5063775;28;20009;-89
2022/04/30 03:27:31;;;;;;;18.10;9.65;;;;;;;;;;5073889;28;20072;-91
2022/04/30 03:29:59;;;;;;;14.98;9.32;;;;;;;;;;5083505;28;20029;-89
2022/04/30 03:32:25;;;;;;;18.00;9.60;;;;;;;;;;5078888;28;20116;-89
2022/04/30 03:34:52;;;;;;;18.67;10.63;;;;;;;;;;5071861;28;20032;-90
2022/04/30 03:37:18;;;;;;;24.30;10.52;;;;;;;;;;5076735;28;20048;-88
2022/04/30 03:39:44;;;;;;;16.30;9.45;;;;;;;;;;5082122;28;20480;-91
2022/04/30 03:42:33;;;;;;;16.45;9.10;;;;;;;;;;5073592;28;20006;-89
2022/04/30 03:45:15;;;;;;;19.40;9.25;;;;;;;;;;5073111;28;20028;-89
2022/04/30 03:47:42;;;;;;;16.77;9.65;;;;;;;;;;5072572;28;20028;-88
2022/04/30 03:50:11;;;;;;;17.10;9.32;;;;;;;;;;5061594;28;20496;-89
2022/04/30 03:53:09;;;;;;;22.85;9.55;;;;;;;;;;5072644;28;20018;-88
2022/04/30 03:55:44;;;;;;;19.30;10.30;;;;;;;;;;5052508;28;20129;-89
2022/04/30 03:58:10;;;;;;;17.40;9.43;;;;;;;;;;5028832;28;20033;-89
2022/04/30 04:00:39;;;;;;;19.30;9.65;;;;;;;;;;5036021;28;20288;-89
2022/04/30 04:03:23;;;;;;;22.75;10.65;;;;;;;;;;4989219;28;20018;-91
2022/04/30 04:05:54;;;;;;;16.23;9.73;;;;;;;;;;5032101;28;20041;-90
2022/04/30 04:08:34;;;;;;;;;;;;;;;;;;;;;
2022/04/30 04:11:24;;;;;;;20.25;10.07;;;;;;;;;;5047422;28;20120;-91
2022/04/30 04:19:34;;;;;;;21.02;10.93;;;;;;;;;;5043821;28;20032;-89
2022/04/30 04:22:05;;;;;;;21.70;10.07;;;;;;;;;;5034805;28;20092;-90
2022/04/30 04:27:18;;;;;;;22.45;10.32;;;;;;;;;;5064191;28;20033;-92
2022/04/30 04:30:15;;;;;;;;;;;;;;;;;;;;;
2022/04/30 04:38:24;;;;;;;19.98;9.77;;;;;;;;;;5063436;28;19950;-91
2022/04/30 04:41:27;;;;;;;19.20;9.60;;;;;;;;;;5080582;28;20179;-90
2022/04/30 04:43:56;;;;;;;12.85;8.82;;;;;;;;;;5023320;28;20049;-87
2022/04/30 04:46:44;;;;;;;18.75;9.13;;;;;;;;;;4950176;28;20036;-93
2022/04/30 04:49:15;;;;;;;14.27;9.27;;;;;;;;;;5000393;28;20061;-91
2022/04/30 04:51:44;;;;;;;18.20;10.02;;;;;;;;;;5011552;28;20026;-88
2022/04/30 04:54:42;;;;;;;23.55;9.73;;;;;;;;;;4999257;28;20025;-91
2022/04/30 04:57:33;;;;;;;19.48;10.65;;;;;;;;;;5000412;28;20057;-88
2022/04/30 05:00:28;;;;;;;20.52;9.15;;;;;;;;;;4980664;28;20023;-90
2022/04/30 05:03:17;;;;;;;17.10;9.50;;;;;;;;;;4980397;28;20011;-89
2022/04/30 05:12:23;;;;;;;20.27;10.40;;;;;;;;;;4978691;28;20055;-88
2022/04/30 05:14:53;;;;;;;17.40;9.77;;;;;;;;;;4995175;28;20038;-88
2022/04/30 05:18:02;;;;;;;17.60;10.48;;;;;;;;;;5014331;28;20050;-88
2022/04/30 05:20:32;;;;;;;21.17;10.13;;;;;;;;;;4961550;28;20027;-89
2022/04/30 05:22:58;;;;;;;19.38;9.70;;;;;;;;;;4964520;28;20038;-90
2022/04/30 05:26:01;;;;;;;24.63;10.23;;;;;;;;;;4982576;28;20071;-89
2022/04/30 05:28:29;;;;;;;19.45;9.77;;;;;;;;;;5018671;28;20069;-90
2022/04/30 05:31:31;;;;;;;19.70;10.23;;;;;;;;;;4998830;28;20015;-88
2022/04/30 05:37:06;;;;;;;20.23;10.05;;;;;;;;;;4960569;28;20112;-89
2022/04/30 05:39:45;;;;;;;19.52;10.75;;;;;;;;;;4954237;28;20023;-89
2022/04/30 05:42:14;;;;;;;18.08;9.73;;;;;;;;;;4984554;28;20038;-89
2022/04/30 05:44:43;;;;;;;23.38;10.73;;;;;;;;;;4998702;28;20073;-89
2022/04/30 05:47:18;;;;;;;21.58;10.07;;;;;;;;;;4998133;28;20031;-87
2022/04/30 05:49:46;;;;;;;19.73;10.57;;;;;;;;;;4998225;28;20038;-88
2022/04/30 05:52:21;;;;;;;18.63;9.45;;;;;;;;;;5016120;28;20034;-88
2022/04/30 05:54:47;;;;;;;23.92;10.48;;;;;;;;;;5002341;28;20053;-89
2022/04/30 05:57:19;;;;;;;17.63;9.82;;;;;;;;;;5018217;28;20029;-88
2022/04/30 05:59:54;;;;;;;18.70;9.68;;;;;;;;;;5018001;28;20026;-88
2022/04/30 06:03:01;;;;;;;22.50;11.60;;;;;;;;;;5039823;28;20085;-88
2022/04/30 06:05:31;;;;;;;15.45;9.18;;;;;;;;;;5015691;28;20073;-88
2022/04/30 06:07:59;;;;;;;13.32;9.02;;;;;;;;;;5041712;28;20076;-87
2022/04/30 06:10:46;;;;;;;16.38;9.52;;;;;;;;;;5057306;28;20029;-88
2022/04/30 06:13:15;;;;;;;18.35;9.70;;;;;;;;;;5057059;28;20039;-90
2022/04/30 06:16:02;;;;;;;17.60;9.43;;;;;;;;;;5037482;28;20030;-89
2022/04/30 06:18:31;;;;;;;21.30;10.18;;;;;;;;;;5036068;28;20010;-88
2022/04/30 06:21:04;;;;;;;19.73;10.43;;;;;;;;;;5025907;28;20034;-88
2022/04/30 06:23:32;;;;;;;19.02;9.93;;;;;;;;;;5024807;28;20383;-88
2022/04/30 06:25:58;;;;;;;22.98;10.52;;;;;;;;;;5025416;28;20034;-89
2022/04/30 06:28:27;;;;;;;19.13;10.15;;;;;;;;;;5027606;28;20525;-88
2022/04/30 06:31:02;;;;;;;17.88;10.63;;;;;;;;;;5029106;28;20038;-89
2022/04/30 06:33:47;;;;;;;21.17;10.30;;;;;;;;;;5029003;28;20061;-89
2022/04/30 06:36:13;;;;;;;21.52;9.45;;;;;;;;;;5032288;28;20572;-91
2022/04/30 06:38:39;;;;;;;20.77;10.90;;;;;;;;;;5049530;28;20500;-87
2022/04/30 06:41:05;;;;;;;21.52;10.60;;;;;;;;;;5050778;28;20037;-89
2022/04/30 06:43:31;;;;;;;20.48;10.02;;;;;;;;;;5046308;28;20059;-89
2022/04/30 06:45:57;;;;;;;22.63;10.10;;;;;;;;;;5046040;28;20268;-89
2022/04/30 06:48:24;;;;;;;19.17;10.93;;;;;;;;;;5047112;28;20040;-91
2022/04/30 06:50:50;;;;;;;19.90;10.43;;;;;;;;;;5045497;28;20032;-91
2022/04/30 06:58:53;;;;;;;22.63;10.18;;;;;;;;;;5048567;28;20470;-86
2022/04/30 07:01:41;;;;;;;18.67;9.77;;;;;;;;;;5049187;28;20028;-89
2022/04/30 07:04:09;;;;;;;21.80;10.32;;;;;;;;;;5050814;28;20079;-86
2022/04/30 07:06:35;;;;;;;20.45;9.98;;;;;;;;;;5059673;28;20080;-89
2022/04/30 07:09:03;;;;;;;20.38;10.07;;;;;;;;;;5063794;28;20037;-86
2022/04/30 07:11:29;;;;;;;19.45;9.77;;;;;;;;;;5066246;28;20028;-84
2022/04/30 07:13:55;;;;;;;14.80;9.65;;;;;;;;;;5062623;28;20440;-85
2022/04/30 07:16:22;;;;;;;15.68;9.20;;;;;;;;;;5056407;28;20025;-88
2022/04/30 07:18:48;;;;;;;17.75;9.88;;;;;;;;;;5049765;28;20025;-86
2022/04/30 07:21:14;;;;;;;13.38;8.77;;;;;;;;;;5050960;28;20075;-93
2022/04/30 07:23:40;;;;;;;18.00;9.10;;;;;;;;;;5051130;28;20020;-90
2022/04/30 07:26:06;;;;;;;23.70;9.75;;;;;;;;;;5050624;28;20025;-90
2022/04/30 07:28:35;;;;;;;15.98;9.05;;;;;;;;;;5048126;28;20028;-89
2022/04/30 07:31:10;;;;;;;14.07;9.02;;;;;;;;;;5048768;28;20096;-87
2022/04/30 07:33:36;;;;;;;18.75;10.05;;;;;;;;;;5050665;28;20124;-92
2022/04/30 07:36:03;;;;;;;14.82;8.68;;;;;;;;;;5049004;28;20028;-90
2022/04/30 07:38:29;;;;;;;15.80;9.07;;;;;;;;;;5049554;28;20028;-91
2022/04/30 07:40:56;;;;;;;17.90;10.02;;;;;;;;;;5044834;28;20370;-88
2022/04/30 07:43:22;;;;;;;16.17;9.88;;;;;;;;;;5050553;28;20021;-90
2022/04/30 07:45:48;;;;;;;19.08;9.75;;;;;;;;;;5050417;28;20083;-90
2022/04/30 07:48:14;;;;;;;17.77;9.75;;;;;;;;;;5051318;28;20044;-88
2022/04/30 07:50:44;;;;;;;15.60;9.75;;;;;;;;;;5050602;28;20424;-85
2022/04/30 07:53:11;;;;;;;13.77;9.48;;;;;;;;;;5050871;28;20029;-86
2022/04/30 07:55:37;;;;;;;17.83;10.40;;;;;;;;;;5052123;28;20464;-89
2022/04/30 07:58:03;;;;;;;16.98;10.13;;;;;;;;;;5051254;28;20060;-88
2022/04/30 08:00:29;;;;;;;18.67;10.85;;;;;;;;;;5051300;28;20029;-88
2022/04/30 08:02:56;;;;;;;19.55;12.18;;;;;;;;;;5050676;28;20112;-90
2022/04/30 08:05:25;;;;;;;19.52;11.02;;;;;;;;;;5051611;28;20029;-86
2022/04/30 08:07:51;;;;;;;20.42;12.48;;;;;;;;;;5050089;28;20083;-88
2022/04/30 08:10:17;;;;;;;19.15;11.70;;;;;;;;;;5043754;28;20091;-87
2022/04/30 08:12:44;;;;;;;22.83;10.90;;;;;;;;;;5042696;28;20025;-87
2022/04/30 08:15:10;;;;;;;21.15;11.75;;;;;;;;;;5059216;28;20093;-88
2022/04/30 08:17:38;;;;;;;23.02;11.65;;;;;;;;;;5057252;28;20449;-88
2022/04/30 08:20:05;;;;;;;19.77;10.98;;;;;;;;;;5057884;28;20025;-88
2022/04/30 08:22:31;;;;;;;18.48;11.43;;;;;;;;;;5048882;28;20036;-89
2022/04/30 08:24:57;;;;;;;20.83;12.15;;;;;;;;;;5059366;28;20400;-89
2022/04/30 08:27:23;;;;;;;24.27;13.18;;;;;;;;;;5051956;28;20032;-89
2022/04/30 08:29:49;;;;;;;19.70;13.38;;;;;;;;;;5049422;28;20036;-88
2022/04/30 08:32:16;;;;;;;23.85;13.95;;;;;;;;;;5049585;28;20416;-90
2022/04/30 08:34:42;;;;;;;27.58;15.30;;;;;;;;;;5049042;28;20021;-89
2022/04/30 08:37:08;;;;;;;28.38;14.82;;;;;;;;;;5051243;28;20036;-89
2022/04/30 08:39:34;;;;;;;27.63;14.85;;;;;;;;;;5049203;28;20033;-88
2022/04/30 08:42:01;;;;;;;29.02;15.52;;;;;;;;;;5050680;28;20219;-87
2022/04/30 08:44:27;;;;;;;29.40;15.55;;;;;;;;;;5050078;28;20516;-89
2022/04/30 08:46:56;;;;;;;24.65;15.35;;;;;;;;;;5050192;28;20035;-86
2022/04/30 08:49:22;;;;;;;24.67;15.38;;;;;;;;;;5049014;28;20013;-88
2022/04/30 08:51:48;;;;;;;27.15;14.45;;;;;;;;;;5049799;28;20025;-89
2022/04/30 08:54:14;;;;;;;24.77;14.60;;;;;;;;;;5050017;28;20025;-89
2022/04/30 08:56:51;;;;;;;21.70;14.90;;;;;;;;;;5048988;28;20027;-89
2022/04/30 08:59:17;;;;;;;23.60;13.43;;;;;;;;;;5063862;28;20028;-89
2022/04/30 09:01:51;;;;;;;26.13;14.93;;;;;;;;;;5050094;28;20104;-89
2022/04/30 09:04:18;;;;;;;22.50;14.57;;;;;;;;;;5064292;28;20021;-91
2022/04/30 09:06:45;;;;;;;23.05;14.13;;;;;;;;;;5049024;28;20028;-90
2022/04/30 09:09:12;;;;;;;27.80;14.85;;;;;;;;;;5047414;28;20021;-88
2022/04/30 09:11:39;;;;;;;27.02;14.82;;;;;;;;;;5049428;28;20428;-90
2022/04/30 09:14:05;;;;;;;27.23;15.25;;;;;;;;;;5048667;28;20112;-88
2022/04/30 09:16:32;;;;;;;23.73;15.30;;;;;;;;;;5049763;28;20105;-87
2022/04/30 09:19:02;;;;;;;28.42;16.10;;;;;;;;;;5048368;28;20056;-88
2022/04/30 09:21:28;;;;;;;24.27;16.48;;;;;;;;;;5049609;28;20447;-89
2022/04/30 09:24:02;;;;;;;23.95;15.88;;;;;;;;;;5049485;28;20025;-89
2022/04/30 09:26:38;;;;;;;24.77;16.15;;;;;;;;;;5048325;28;20025;-90
2022/04/30 09:29:19;;;;;;;28.65;17.10;;;;;;;;;;5049660;28;20036;-88
2022/04/30 09:31:49;;;;;;;25.00;15.40;;;;;;;;;;5046895;28;20017;-90
2022/04/30 09:39:45;;;;;;;24.65;16.77;;;;;;;;;;5047273;28;20094;-89
2022/04/30 09:42:12;;;;;;;22.27;15.90;;;;;;;;;;5051148;28;20025;-89
2022/04/30 09:44:39;;;;;;;24.10;16.07;;;;;;;;;;5052433;28;20020;-88
2022/04/30 09:47:08;;;;;;;24.00;16.52;;;;;;;;;;5054516;28;20029;-87
2022/04/30 09:55:05;;;;;;;25.55;17.60;;;;;;;;;;5053828;28;20040;-89
2022/04/30 09:57:32;;;;;;;26.25;17.70;;;;;;;;;;5050109;28;20044;-89
2022/04/30 10:00:00;;;;;;;27.65;18.15;;;;;;;;;;5050050;28;20017;-86
2022/04/30 10:02:28;;;;;;;29.80;17.60;;;;;;;;;;5049029;28;20056;-91
2022/04/30 10:04:55;;;;;;;25.33;18.65;;;;;;;;;;5049940;28;20023;-92
2022/04/30 10:07:24;;;;;;;29.13;18.48;;;;;;;;;;5050488;28;20044;-89
2022/04/30 10:10:00;;;;;;;26.58;17.40;;;;;;;;;;5047138;28;20041;-86
2022/04/30 10:12:33;;;;;;;27.33;17.45;;;;;;;;;;5049385;28;20014;-89
2022/04/30 10:15:16;;;;;;;30.80;17.80;;;;;;;;;;5046672;28;20104;-88
2022/04/30 10:17:48;;;;;;;29.45;17.60;;;;;;;;;;5062399;28;20032;-88
2022/04/30 10:20:17;;;;;;;29.23;18.48;;;;;;;;;;5048701;28;20043;-88
2022/04/30 10:22:54;;;;;;;25.77;17.75;;;;;;;;;;5047170;28;20059;-86
2022/04/30 10:25:39;;;;;;;28.10;18.50;;;;;;;;;;5061734;28;20021;-86
2022/04/30 10:28:16;;;;;;;28.63;17.30;;;;;;;;;;5059141;28;20114;-88
2022/04/30 10:30:43;;;;;;;31.92;19.10;;;;;;;;;;5046740;28;20142;-89
2022/04/30 10:33:10;;;;;;;29.85;18.45;;;;;;;;;;5049422;28;20071;-89
2022/04/30 10:35:40;;;;;;;31.50;18.38;;;;;;;;;;5047345;28;20017;-87
2022/04/30 10:38:13;;;;;;;35.30;19.35;;;;;;;;;;5042604;28;20033;-84
2022/04/30 10:40:40;;;;;;;26.73;18.23;;;;;;;;;;5051088;28;20556;-84
2022/04/30 10:43:16;;;;;;;28.50;18.67;;;;;;;;;;5044660;28;20032;-87
2022/04/30 10:45:42;;;;;;;28.88;18.40;;;;;;;;;;5048991;28;20021;-85
2022/04/30 10:48:09;;;;;;;26.95;17.77;;;;;;;;;;5048288;28;20409;-87
2022/04/30 10:50:35;;;;;;;23.98;17.02;;;;;;;;;;5048546;28;20048;-85
2022/04/30 10:53:01;;;;;;;27.95;18.30;;;;;;;;;;5050653;28;20197;-88
2022/04/30 10:55:28;;;;;;;26.30;18.30;;;;;;;;;;5050093;28;20021;-85
2022/04/30 10:57:54;;;;;;;33.05;17.80;;;;;;;;;;5050881;28;20107;-84
2022/04/30 11:00:23;;;;;;;27.38;17.13;;;;;;;;;;5055318;28;20075;-91
2022/04/30 11:02:49;;;;;;;31.30;18.15;;;;;;;;;;5045301;28;20029;-86
2022/04/30 11:05:19;;;;;;;26.38;17.35;;;;;;;;;;5057362;28;20025;-87
2022/04/30 11:07:45;;;;;;;25.33;16.98;;;;;;;;;;5047296;28;20032;-89
2022/04/30 11:10:12;;;;;;;28.98;17.27;;;;;;;;;;5046723;28;20536;-89
2022/04/30 11:12:38;;;;;;;26.17;16.58;;;;;;;;;;5046974;28;20542;-87
2022/04/30 11:15:06;;;;;;;27.60;17.15;;;;;;;;;;5047909;28;20377;-87
2022/04/30 11:17:42;;;;;;;27.83;16.58;;;;;;;;;;5055004;28;20040;-87
2022/04/30 11:20:09;;;;;;;30.27;17.10;;;;;;;;;;5047278;28;20029;-88
2022/04/30 11:22:35;;;;;;;24.23;17.27;;;;;;;;;;5046611;28;20397;-88
2022/04/30 11:25:01;;;;;;;30.63;17.88;;;;;;;;;;5047308;28;20135;-88
2022/04/30 11:27:31;;;;;;;28.60;17.23;;;;;;;;;;5046939;28;20172;-86
2022/04/30 11:29:57;;;;;;;30.88;17.05;;;;;;;;;;5042704;28;20218;-86
2022/04/30 11:32:27;;;;;;;26.80;16.17;;;;;;;;;;5045878;28;20033;-87
2022/04/30 11:34:54;;;;;;;26.83;18.10;;;;;;;;;;5046371;28;20025;-85
2022/04/30 11:37:20;;;;;;;30.83;17.77;;;;;;;;;;5046097;28;20013;-87
2022/04/30 11:39:46;;;;;;;32.58;18.42;;;;;;;;;;5047284;28;20109;-87
2022/04/30 11:42:12;;;;;;;25.25;16.23;;;;;;;;;;5047394;28;20465;-83
2022/04/30 11:44:38;;;;;;;24.48;15.88;;;;;;;;;;5047817;28;20071;-87
2022/04/30 11:47:07;;;;;;;26.85;15.68;;;;;;;;;;5045479;28;20116;-87
2022/04/30 11:49:34;;;;;;;21.42;15.98;;;;;;;;;;5043356;28;20025;-88
2022/04/30 11:52:00;;;;;;;26.75;16.75;;;;;;;;;;5048947;28;20542;-88
2022/04/30 11:54:28;;;;;;;30.70;18.55;;;;;;;;;;5049129;28;20051;-88
2022/04/30 11:56:54;;;;;;;24.80;17.23;;;;;;;;;;5048988;28;20108;-88
2022/04/30 11:59:29;;;;;;;26.58;16.90;;;;;;;;;;5048465;28;20104;-87
2022/04/30 12:01:55;;;;;;;29.85;17.05;;;;;;;;;;5047227;28;20029;-87
2022/04/30 12:04:22;;;;;;;22.58;16.15;;;;;;;;;;5046807;28;20496;-86
2022/04/30 12:06:57;;;;;;;22.25;15.63;;;;;;;;;;5048264;28;20337;-85
2022/04/30 12:09:28;;;;;;;29.77;17.42;;;;;;;;;;5048333;28;20513;-85
2022/04/30 12:11:54;;;;;;;25.42;15.73;;;;;;;;;;5048240;28;20388;-87
2022/04/30 12:14:20;;;;;;;33.88;17.77;;;;;;;;;;5046473;28;20476;-84
2022/04/30 12:16:47;;;;;;;28.98;16.85;;;;;;;;;;5045907;28;20029;-84
2022/04/30 12:25:01;;;;;;;31.85;17.15;;;;;;;;;;5072281;28;20020;-84
2022/04/30 12:27:28;;;;;;;26.92;16.00;;;;;;;;;;5075813;28;20025;-86
2022/04/30 12:30:05;;;;;;;25.27;16.83;;;;;;;;;;5055221;28;20108;-86
2022/04/30 12:32:33;;;;;;;24.67;16.90;;;;;;;;;;5051582;28;20489;-87
2022/04/30 12:34:59;;;;;;;28.65;17.00;;;;;;;;;;5050406;28;20506;-86
2022/04/30 12:37:34;;;;;;;24.13;16.58;;;;;;;;;;5050138;28;20101;-85
2022/04/30 12:40:02;;;;;;;25.33;17.20;;;;;;;;;;5064145;28;20029;-91
2022/04/30 12:42:28;;;;;;;22.52;16.02;;;;;;;;;;5048016;28;20029;-85
2022/04/30 12:44:54;;;;;;;31.40;17.08;;;;;;;;;;5046233;28;20043;-85
2022/04/30 12:47:20;;;;;;;30.05;16.60;;;;;;;;;;5047802;28;20112;-87
2022/04/30 12:49:46;;;;;;;26.90;16.35;;;;;;;;;;5047964;28;20036;-87
2022/04/30 12:52:13;;;;;;;28.95;16.50;;;;;;;;;;5049095;28;20037;-86
2022/04/30 12:54:39;;;;;;;27.90;16.83;;;;;;;;;;5047215;28;20025;-85
2022/04/30 12:57:07;;;;;;;23.83;17.00;;;;;;;;;;5048684;28;20019;-88
2022/04/30 12:59:34;;;;;;;29.48;17.05;;;;;;;;;;5049401;28;20025;-86
2022/04/30 13:02:00;;;;;;;42.55;17.27;;;;;;;;;;5062025;28;20554;-86
2022/04/30 13:04:26;;;;;;;29.65;16.58;;;;;;;;;;5048902;28;20546;-87
2022/04/30 13:06:52;;;;;;;31.95;16.05;;;;;;;;;;5047669;28;20025;-86
2022/04/30 13:14:47;;;;;;;23.20;16.35;;;;;;;;;;5046045;28;20044;-85
2022/04/30 13:17:13;;;;;;;29.23;17.38;;;;;;;;;;5045768;28;20029;-86
2022/04/30 13:19:40;;;;;;;26.02;16.75;;;;;;;;;;5046200;28;20029;-85
2022/04/30 13:22:06;;;;;;;25.08;16.92;;;;;;;;;;5047126;28;20052;-85
2022/04/30 13:24:35;;;;;;;24.42;17.40;;;;;;;;;;5048063;28;20332;-85
2022/04/30 13:27:01;;;;;;;28.27;16.80;;;;;;;;;;5047822;28;20049;-86
2022/04/30 13:29:27;;;;;;;23.45;16.60;;;;;;;;;;5047536;28;20212;-88
2022/04/30 13:31:53;;;;;;;23.70;16.42;;;;;;;;;;5047549;28;20053;-88
2022/04/30 13:34:22;;;;;;;24.02;16.10;;;;;;;;;;5048273;28;20518;-87
2022/04/30 13:36:48;;;;;;;22.60;16.60;;;;;;;;;;5047444;28;20029;-88
2022/04/30 13:39:14;;;;;;;25.05;16.20;;;;;;;;;;5046581;28;20025;-88
2022/04/30 13:41:40;;;;;;;22.98;15.30;;;;;;;;;;5047030;28;20041;-88
2022/04/30 13:44:09;;;;;;;22.10;15.15;;;;;;;;;;5047825;28;20023;-87
2022/04/30 13:46:35;;;;;;;23.52;14.23;;;;;;;;;;5048524;28;20025;-87
2022/04/30 13:49:03;;;;;;;20.13;14.00;;;;;;;;;;5049771;28;20035;-86
2022/04/30 13:51:29;;;;;;;23.60;13.98;;;;;;;;;;5049792;28;20025;-87
2022/04/30 13:53:55;;;;;;;21.00;13.35;;;;;;;;;;5048247;28;20035;-86
2022/04/30 13:56:21;;;;;;;19.67;12.85;;;;;;;;;;5047451;28;20396;-86
2022/04/30 13:58:47;;;;;;;19.27;12.65;;;;;;;;;;5047350;28;20037;-89
2022/04/30 14:01:13;;;;;;;23.77;12.65;;;;;;;;;;5046910;28;20420;-86
2022/04/30 14:03:40;;;;;;;18.33;12.82;;;;;;;;;;5047939;28;20017;-88
2022/04/30 14:06:07;;;;;;;21.25;12.73;;;;;;;;;;5047451;28;20044;-86
2022/04/30 14:08:33;;;;;;;22.48;12.90;;;;;;;;;;5047987;28;20037;-87
2022/04/30 14:10:59;;;;;;;18.58;12.55;;;;;;;;;;5046809;28;20484;-86
2022/04/30 14:16:10;;;;;;;21.85;13.23;;;;;;;;;;5047644;28;20056;-87
2022/04/30 14:18:36;;;;;;;18.27;12.32;;;;;;;;;;5047751;28;20025;-87
2022/04/30 14:21:06;;;;;;;21.55;13.43;;;;;;;;;;5048018;28;20236;-87
2022/04/30 14:23:32;;;;;;;16.83;12.38;;;;;;;;;;5046623;28;20461;-86
2022/04/30 14:25:58;;;;;;;20.17;12.98;;;;;;;;;;5047937;28;20500;-87
2022/04/30 14:28:24;;;;;;;18.45;12.05;;;;;;;;;;5048039;28;20033;-86
2022/04/30 14:30:50;;;;;;;17.92;11.77;;;;;;;;;;5046608;28;20037;-88
2022/04/30 14:33:17;;;;;;;19.92;13.23;;;;;;;;;;5043352;28;20514;-87
2022/04/30 14:35:43;;;;;;;19.52;12.55;;;;;;;;;;5048053;28;20017;-88
2022/04/30 14:38:11;;;;;;;21.48;13.50;;;;;;;;;;5049119;28;20044;-89
2022/04/30 14:40:39;;;;;;;20.90;13.65;;;;;;;;;;5048877;28;20135;-87
2022/04/30 14:43:07;;;;;;;23.10;13.57;;;;;;;;;;5048956;28;20136;-88
2022/04/30 14:45:33;;;;;;;20.40;13.57;;;;;;;;;;5046602;28;20631;-87
2022/04/30 14:47:59;;;;;;;20.65;13.73;;;;;;;;;;5047321;28;20563;-87
2022/04/30 14:50:25;;;;;;;20.67;12.52;;;;;;;;;;5046455;28;20021;-89
2022/04/30 14:52:52;;;;;;;17.30;13.00;;;;;;;;;;5046941;28;20061;-87
2022/04/30 14:55:18;;;;;;;26.13;14.65;;;;;;;;;;5048249;28;20025;-89
2022/04/30 14:57:44;;;;;;;22.92;13.25;;;;;;;;;;5045686;28;20447;-87
2022/04/30 15:00:10;;;;;;;17.75;11.90;;;;;;;;;;5047359;28;20032;-89
2022/04/30 15:02:36;;;;;;;21.25;14.38;;;;;;;;;;5047235;28;20021;-87
2022/04/30 15:05:02;;;;;;;27.13;14.48;;;;;;;;;;5045791;28;20401;-89
2022/04/30 15:07:28;;;;;;;19.45;14.15;;;;;;;;;;5045891;28;20033;-89
2022/04/30 15:09:54;;;;;;;20.30;13.80;;;;;;;;;;5047525;28;20052;-87
2022/04/30 15:12:20;;;;;;;21.77;14.68;;;;;;;;;;5048011;28;20025;-88
2022/04/30 15:14:47;;;;;;;19.95;12.98;;;;;;;;;;5048004;28;20036;-87
2022/04/30 15:17:13;;;;;;;21.40;14.40;;;;;;;;;;5049047;28;20481;-87
2022/04/30 15:19:39;;;;;;;22.77;13.43;;;;;;;;;;5049232;28;20029;-88
2022/04/30 15:22:05;;;;;;;23.38;14.65;;;;;;;;;;5047866;28;20025;-87
2022/04/30 15:24:32;;;;;;;20.80;15.35;;;;;;;;;;5047930;28;20052;-86
2022/04/30 15:26:58;;;;;;;23.73;14.77;;;;;;;;;;5049039;28;20017;-89
2022/04/30 15:29:28;;;;;;;21.80;15.32;;;;;;;;;;5047930;28;20488;-87
2022/04/30 15:31:58;;;;;;;18.95;14.00;;;;;;;;;;5048088;28;20056;-84
2022/04/30 15:34:24;;;;;;;24.45;14.40;;;;;;;;;;5047289;28;20067;-88
2022/04/30 15:36:50;;;;;;;22.60;15.43;;;;;;;;;;5046740;28;20115;-88
2022/04/30 15:39:16;;;;;;;20.50;14.18;;;;;;;;;;5046567;28;20120;-86
2022/04/30 15:41:42;;;;;;;21.65;14.73;;;;;;;;;;5046640;28;20021;-84
2022/04/30 15:44:08;;;;;;;23.67;14.82;;;;;;;;;;5048810;28;20389;-88
2022/04/30 15:52:08;;;;;;;25.45;14.38;;;;;;;;;;5029194;28;20032;-87
2022/04/30 15:54:34;;;;;;;29.27;15.43;;;;;;;;;;5028671;28;20436;-88
2022/04/30 15:57:01;;;;;;;22.63;14.88;;;;;;;;;;5028634;28;20029;-89
2022/04/30 15:59:27;;;;;;;21.83;15.25;;;;;;;;;;5029102;28;20110;-87
2022/04/30 16:01:54;;;;;;;21.27;14.27;;;;;;;;;;5031002;28;20247;-87
2022/04/30 16:04:21;;;;;;;21.85;14.32;;;;;;;;;;5032200;28;20029;-88
2022/04/30 16:06:48;;;;;;;23.58;14.70;;;;;;;;;;5030994;28;20025;-88
2022/04/30 16:09:14;;;;;;;22.55;14.65;;;;;;;;;;5037986;28;20695;-88